SCIE

Carriel Sur Airport

Concepcion, Chile
TAF SCIE 261015Z 2612/2712 02015KT 9999 BKN007 OVC013 TX16/2618Z TN06/2710Z TEMPO 2614/2618 01020G30KT 6000 SHRA BKN012 OVC020 BECMG 2618/2620 29015KT 3000 -RA SCT008 OVC015 BECMG 2622/2624 8000 -SHRA SCT015 BKN025 BECMG 2700/2702 25010KT 9999 NSW SCT025 BECMG 2706/2708 17005KT SCT010 BECMG 2709/2711 CAVOK
Issued Valid From Valid To
Apr-26 @ 10:15 UTC
(3 hours ago)
Apr-26 @ 12:00 UTC
(2 hours ago)
Apr-27 @ 12:00 UTC
(in 22 hours)
Apr-26 @ 12:00 to Apr-26 @ 18:00
TAF SCIE 261015Z 2612/2712 02015KT 9999 BKN007 OVC013 TX16/2618Z TN06/2710Z
Wind Visibility Clouds
20° at 15 knots 10,000+ meters
  • Broken at 700' AGL
  • Overcast at 1,300' AGL
Temporary Apr-26 @ 14:00 to Apr-26 @ 18:00
TEMPO 2614/2618 01020G30KT 6000 SHRA BKN012 OVC020
Wind Visibility Clouds Conditions
10° at 20 knots
 Gusting to 30 knots
6,003 meters
  • Broken at 1,200' AGL
  • Overcast at 2,000' AGL
  • Rain
Becoming Apr-26 @ 18:00 to Apr-26 @ 22:00
BECMG 2618/2620 29015KT 3000 -RA SCT008 OVC015
Wind Visibility Clouds Conditions
290° at 15 knots 2,993 meters
  • Scattered at 800' AGL
  • Overcast at 1,500' AGL
  • Light Rain
Becoming Apr-26 @ 22:00 to Apr-27 @ 00:00
BECMG 2622/2624 8000 -SHRA SCT015 BKN025
Wind Visibility Clouds Conditions
290° at 15 knots 7,998 meters
  • Scattered at 1,500' AGL
  • Broken at 2,500' AGL
  • Light Rain
Becoming Apr-27 @ 00:00 to Apr-27 @ 06:00
BECMG 2700/2702 25010KT 9999 NSW SCT025
Wind Visibility Clouds Conditions
250° at 10 knots 10,000+ meters
  • Scattered at 2,500' AGL
Becoming Apr-27 @ 06:00 to Apr-27 @ 09:00
BECMG 2706/2708 17005KT SCT010
Wind Visibility Clouds Conditions
170° at 5 knots 10,000+ meters
  • Scattered at 1,000' AGL
Becoming Apr-27 @ 09:00 to Apr-27 @ 12:00
BECMG 2709/2711 CAVOK
Wind Visibility Clouds Conditions
170° at 5 knots 10,000+ meters
  • No significant clouds
TAF SCIE 261015Z 2612/2712 02015KT 9999 BKN007 OVC013 TX16/2618Z TN06/2710Z TEMPO 2614/2618 01020G30KT 6000 SHRA BKN012 OVC020 BECMG 2618/2620 29015KT 3000 -RA SCT008 OVC015 BECMG 2622/2624 8000 -SHRA SCT015 BKN025 BECMG 2700/2702 25010KT 9999 NSW SCT025 BECMG 2706/2708 17005KT SCT010 BECMG 2709/2711 CAVOK
Issued Apr-26 @ 10:15 UTC
(3 hours ago)
Valid From Apr-26 @ 12:00 UTC
(2 hours ago)
Valid To Apr-27 @ 12:00 UTC
(in 22 hours)
Apr-26 @ 12:00 - Apr-26 @ 18:00
Wind Visibility
20° at 15 knots 10,000+ meters
Clouds
  • Broken at 700' AGL
  • Overcast at 1,300' AGL
Temporary Apr-26 @ 14:00 - Apr-26 @ 18:00
Wind Visibility
10° at 20 knots
 Gusting to 30 knots
6,003 meters
Clouds
  • Broken at 1,200' AGL
  • Overcast at 2,000' AGL
Conditions
  • Rain
Becoming Apr-26 @ 18:00 - Apr-26 @ 22:00
Wind Visibility
290° at 15 knots 2,993 meters
Clouds
  • Scattered at 800' AGL
  • Overcast at 1,500' AGL
Conditions
  • Light Rain
Becoming Apr-26 @ 22:00 - Apr-27 @ 00:00
Wind Visibility
290° at 15 knots 7,998 meters
Clouds
  • Scattered at 1,500' AGL
  • Broken at 2,500' AGL
Conditions
  • Light Rain
Becoming Apr-27 @ 00:00 - Apr-27 @ 06:00
Wind Visibility
250° at 10 knots 10,000+ meters
Clouds
  • Scattered at 2,500' AGL
Conditions
Becoming Apr-27 @ 06:00 - Apr-27 @ 09:00
Wind Visibility
170° at 5 knots 10,000+ meters
Clouds
  • Scattered at 1,000' AGL
Conditions
Becoming Apr-27 @ 09:00 - Apr-27 @ 12:00
Wind Visibility
170° at 5 knots 10,000+ meters
Clouds
  • No significant clouds
Conditions